createdAt,value
2023-03-12T00:00:46.464Z,2.04
2023-03-12T00:03:18.854Z,2.02
2023-03-12T00:05:50.896Z,2.01
2023-03-12T00:08:22.848Z,2.04
2023-03-12T00:10:55.013Z,2.05
2023-03-12T00:13:27.228Z,2.09
2023-03-12T00:16:16.401Z,2.03
2023-03-12T00:18:50.609Z,2.06
2023-03-12T00:21:23.677Z,2.05
2023-03-12T00:23:55.710Z,2.03
2023-03-12T00:26:28.090Z,2.01
2023-03-12T00:29:35.088Z,1.95
2023-03-12T00:32:07.734Z,1.95
2023-03-12T00:34:39.746Z,1.93
2023-03-12T00:37:11.707Z,1.85
2023-03-12T00:39:43.731Z,1.89
2023-03-12T00:42:15.796Z,1.91
2023-03-12T00:44:47.803Z,1.90
2023-03-12T00:47:19.887Z,1.84
2023-03-12T00:49:51.851Z,1.73
2023-03-12T00:52:23.923Z,1.78
2023-03-12T00:54:58.438Z,1.81
2023-03-12T00:57:30.611Z,1.72
2023-03-12T01:03:00.304Z,1.66
2023-03-12T01:05:37.629Z,1.68
2023-03-12T01:08:10.388Z,1.66
2023-03-12T01:10:43.696Z,1.62
2023-03-12T01:13:15.873Z,1.59
2023-03-12T01:15:47.881Z,1.61
2023-03-12T01:18:19.928Z,1.60
2023-03-12T01:20:51.946Z,1.61
2023-03-12T01:23:24.033Z,1.59
2023-03-12T01:25:56.626Z,1.57
2023-03-12T01:29:04.429Z,1.56
2023-03-12T01:31:36.684Z,1.51
2023-03-12T01:34:11.905Z,1.48
2023-03-12T01:36:45.176Z,1.50
2023-03-12T01:39:17.193Z,1.48
2023-03-12T01:41:49.135Z,1.46
2023-03-12T01:44:21.152Z,1.47
2023-03-12T01:46:53.216Z,1.48
2023-03-12T01:49:32.423Z,1.46
2023-03-12T01:52:06.217Z,1.44
2023-03-12T01:54:45.241Z,1.43
2023-03-12T01:57:23.147Z,1.38
2023-03-12T02:00:07.445Z,1.38
2023-03-12T02:02:39.991Z,1.34
2023-03-12T02:05:30.216Z,1.30
2023-03-12T02:08:02.050Z,1.28
2023-03-12T02:10:40.276Z,1.28
2023-03-12T02:13:12.910Z,1.24
2023-03-12T02:15:45.007Z,1.25
2023-03-12T02:18:20.451Z,1.22
2023-03-12T02:21:16.377Z,1.20
2023-03-12T02:24:12.648Z,1.17
2023-03-12T02:26:44.633Z,1.18
2023-03-12T02:29:17.481Z,1.17
2023-03-12T02:31:54.507Z,1.20
2023-03-12T02:34:26.678Z,1.17
2023-03-12T02:36:58.653Z,1.20
2023-03-12T02:39:30.610Z,1.15
2023-03-12T02:42:05.836Z,1.13
2023-03-12T02:44:38.139Z,1.07
2023-03-12T02:47:23.102Z,1.02
2023-03-12T02:50:09.332Z,1.07
2023-03-12T02:52:41.340Z,1.04
2023-03-12T02:55:13.365Z,0.99
2023-03-12T02:57:45.381Z,0.99
2023-03-12T03:00:18.888Z,1.03
2023-03-12T03:02:50.906Z,0.95
2023-03-12T03:05:22.882Z,0.94
2023-03-12T03:07:54.977Z,0.93
2023-03-12T03:10:27.061Z,0.95
2023-03-12T03:12:59.099Z,0.90
2023-03-12T03:15:31.547Z,0.94
2023-03-12T03:18:04.066Z,0.89
2023-03-12T03:20:36.072Z,0.83
2023-03-12T03:23:09.726Z,0.83
2023-03-12T03:25:41.686Z,0.90
2023-03-12T03:28:13.712Z,0.83
2023-03-12T03:30:45.891Z,0.79
2023-03-12T03:33:17.887Z,0.71
2023-03-12T03:35:51.031Z,0.74
2023-03-12T03:38:23.783Z,0.77
2023-03-12T03:42:07.292Z,0.85
2023-03-12T03:44:39.373Z,0.81
2023-03-12T03:47:11.351Z,0.81
2023-03-12T03:49:43.389Z,0.77
2023-03-12T03:52:15.352Z,0.76
2023-03-12T03:55:38.837Z,0.80
2023-03-12T03:58:17.365Z,0.84
2023-03-12T04:00:49.344Z,0.92
2023-03-12T04:03:21.314Z,0.99
2023-03-12T04:06:05.915Z,1.04
2023-03-12T04:08:38.876Z,1.07
2023-03-12T04:11:15.359Z,1.11
2023-03-12T04:13:48.040Z,1.18
2023-03-12T04:16:20.169Z,1.25
2023-03-12T04:18:52.376Z,1.19
2023-03-12T04:21:24.658Z,1.14
2023-03-12T04:23:56.970Z,1.11
2023-03-12T04:26:28.973Z,1.09
2023-03-12T04:29:05.934Z,1.16
2023-03-12T04:31:38.145Z,1.13
2023-03-12T04:34:12.612Z,1.11
2023-03-12T04:36:47.096Z,1.06
2023-03-12T04:39:20.322Z,0.99
2023-03-12T04:41:52.361Z,1.00
2023-03-12T04:44:24.486Z,1.03
2023-03-12T04:46:56.668Z,1.08
2023-03-12T04:49:28.858Z,0.97
2023-03-12T04:52:00.791Z,0.94
2023-03-12T04:54:33.503Z,0.92
2023-03-12T04:57:05.581Z,0.99
2023-03-12T04:59:37.648Z,1.01
2023-03-12T05:02:09.675Z,1.04
2023-03-12T05:04:58.338Z,1.04
2023-03-12T05:07:30.355Z,0.99
2023-03-12T05:10:02.551Z,0.97
2023-03-12T05:12:34.658Z,1.01
2023-03-12T05:15:07.836Z,1.03
2023-03-12T05:17:39.923Z,1.07
2023-03-12T05:20:13.312Z,1.05
2023-03-12T05:22:45.309Z,1.14
2023-03-12T05:25:17.331Z,1.15
2023-03-12T05:27:49.346Z,1.11
2023-03-12T05:30:21.849Z,1.15
2023-03-12T05:36:42.548Z,1.16
2023-03-12T05:39:14.554Z,1.14
2023-03-12T05:41:46.534Z,1.16
2023-03-12T05:44:18.604Z,1.14
2023-03-12T05:46:51.634Z,1.09
2023-03-12T05:49:25.025Z,1.13
2023-03-12T05:51:57.633Z,1.16
2023-03-12T05:54:51.134Z,1.20
2023-03-12T05:57:39.781Z,1.12
2023-03-12T06:00:14.717Z,1.10
2023-03-12T06:02:48.509Z,1.07
2023-03-12T06:05:20.503Z,1.22
2023-03-12T06:07:52.472Z,1.22
2023-03-12T06:10:24.427Z,1.28
2023-03-12T06:12:57.805Z,1.37
2023-03-12T06:15:32.122Z,1.31
2023-03-12T06:18:04.231Z,1.36
2023-03-12T06:20:36.263Z,1.37
2023-03-12T06:23:08.364Z,1.48
2023-03-12T06:25:40.347Z,1.51
2023-03-12T06:30:59.820Z,1.64
2023-03-12T06:33:32.549Z,1.57
2023-03-12T06:36:07.072Z,1.58
2023-03-12T06:38:39.787Z,1.51
2023-03-12T06:41:16.455Z,1.51
2023-03-12T06:43:48.952Z,1.57
2023-03-12T06:46:24.084Z,1.71
2023-03-12T06:48:56.175Z,1.80
2023-03-12T06:51:28.230Z,1.78
2023-03-12T06:54:06.599Z,1.83
2023-03-12T06:56:56.458Z,1.90
2023-03-12T06:59:29.491Z,1.96
2023-03-12T07:02:01.986Z,1.98
2023-03-12T07:04:34.046Z,2.08
2023-03-12T07:07:06.071Z,2.16
2023-03-12T07:09:38.108Z,2.26
2023-03-12T07:12:10.251Z,2.35
2023-03-12T07:14:55.435Z,2.39
2023-03-12T07:17:27.466Z,2.48
2023-03-12T07:19:59.620Z,2.63
2023-03-12T07:22:31.927Z,2.72
2023-03-12T07:25:04.839Z,2.89
2023-03-12T07:27:49.702Z,3.09
2023-03-12T07:30:22.412Z,3.27
2023-03-12T07:32:54.444Z,3.41
2023-03-12T07:35:26.933Z,3.54
2023-03-12T07:38:00.289Z,3.61
2023-03-12T07:40:32.624Z,3.54
2023-03-12T07:43:11.159Z,3.49
2023-03-12T07:45:45.799Z,3.49
2023-03-12T07:48:19.995Z,3.46
2023-03-12T07:50:52.302Z,3.52
2023-03-12T07:54:08.466Z,3.49
2023-03-12T07:56:40.661Z,3.56
2023-03-12T07:59:12.953Z,3.52
2023-03-12T08:01:46.420Z,3.57
2023-03-12T08:04:18.888Z,3.50
2023-03-12T08:06:50.965Z,3.47
2023-03-12T08:09:22.951Z,3.54
2023-03-12T08:11:55.062Z,3.61
2023-03-12T08:14:31.689Z,3.68
2023-03-12T08:17:03.812Z,3.80
2023-03-12T08:19:35.823Z,3.80
2023-03-12T08:22:07.848Z,3.89
2023-03-12T08:24:40.062Z,3.95
2023-03-12T08:27:12.454Z,3.87
2023-03-12T08:29:44.454Z,4.15
2023-03-12T08:32:16.471Z,4.51
2023-03-12T08:34:48.516Z,4.66
2023-03-12T08:37:20.496Z,4.80
2023-03-12T08:39:52.539Z,5.01
2023-03-12T08:42:24.589Z,5.17
2023-03-12T08:44:56.648Z,4.94
2023-03-12T08:47:28.622Z,4.56
2023-03-12T08:50:00.547Z,4.40
2023-03-12T08:52:32.690Z,4.54
2023-03-12T08:55:06.138Z,4.45
2023-03-12T08:57:38.908Z,4.50
2023-03-12T09:00:31.930Z,4.72
2023-03-12T09:03:03.992Z,5.20
2023-03-12T09:05:36.439Z,5.70
2023-03-12T09:08:09.584Z,5.67
2023-03-12T09:10:48.789Z,5.30
2023-03-12T09:13:58.101Z,5.23
2023-03-12T09:16:29.509Z,4.96
2023-03-12T09:19:01.627Z,4.95
2023-03-12T09:21:33.579Z,5.03
2023-03-12T09:24:06.760Z,5.25
2023-03-12T09:27:17.111Z,5.30
2023-03-12T09:30:01.292Z,5.51
2023-03-12T09:32:33.592Z,5.59
2023-03-12T09:35:07.587Z,5.61
2023-03-12T09:38:01.203Z,5.74
2023-03-12T09:40:37.356Z,5.72
2023-03-12T09:43:20.820Z,5.90
2023-03-12T09:45:54.340Z,5.81
2023-03-12T09:48:34.573Z,5.99
2023-03-12T09:54:49.715Z,6.48
2023-03-12T10:00:22.152Z,6.19
2023-03-12T10:03:12.821Z,6.42
2023-03-12T10:06:13.986Z,6.83
2023-03-12T10:09:20.455Z,6.44
2023-03-12T10:11:59.954Z,6.53
2023-03-12T10:15:08.213Z,6.68
2023-03-12T10:18:01.093Z,6.73
2023-03-12T10:20:52.485Z,6.91
2023-03-12T10:24:04.703Z,6.83
2023-03-12T10:26:43.279Z,7.14
2023-03-12T10:30:00.147Z,6.97
2023-03-12T10:32:48.931Z,7.67
2023-03-12T10:35:28.568Z,8.20
2023-03-12T10:38:03.186Z,8.29
2023-03-12T10:40:39.084Z,8.51
2023-03-12T10:43:11.194Z,8.42
2023-03-12T10:46:22.610Z,7.85
2023-03-12T10:49:23.152Z,7.20
2023-03-12T10:52:23.167Z,6.88
2023-03-12T10:54:55.182Z,6.51
2023-03-12T10:57:52.702Z,6.48
2023-03-12T11:00:32.271Z,6.39
2023-03-12T11:03:09.635Z,6.11
2023-03-12T11:06:01.544Z,6.26
2023-03-12T11:08:36.672Z,5.97
2023-03-12T11:11:11.953Z,6.06
2023-03-12T11:13:44.042Z,5.99
2023-03-12T11:16:18.834Z,5.65
2023-03-12T11:19:02.126Z,5.67
2023-03-12T11:21:38.340Z,5.56
2023-03-12T11:24:15.156Z,5.27
2023-03-12T11:27:13.291Z,5.09
2023-03-12T11:29:49.687Z,4.93
2023-03-12T11:36:09.413Z,4.52
2023-03-12T11:38:55.149Z,4.30
2023-03-12T11:41:39.032Z,4.41
2023-03-12T11:44:31.201Z,4.55
2023-03-12T11:47:21.212Z,4.33
2023-03-12T11:50:15.887Z,4.04
2023-03-12T11:53:17.770Z,3.87
2023-03-12T11:56:21.241Z,3.71
2023-03-12T11:59:28.553Z,3.69
2023-03-12T12:02:40.853Z,3.54
2023-03-12T12:05:35.005Z,3.40
2023-03-12T12:08:40.936Z,3.59
2023-03-12T12:11:38.981Z,3.60
2023-03-12T12:14:52.046Z,3.81
2023-03-12T12:17:54.212Z,3.81
2023-03-12T12:20:39.791Z,3.86
2023-03-12T12:23:25.410Z,3.79
2023-03-12T12:26:27.414Z,3.82
2023-03-12T12:29:14.304Z,3.80
2023-03-12T12:31:58.482Z,4.00
2023-03-12T12:35:04.928Z,3.78
2023-03-12T12:38:15.300Z,3.45
2023-03-12T12:40:54.737Z,3.41
2023-03-12T12:43:39.372Z,3.41
2023-03-12T12:46:20.362Z,3.44
2023-03-12T12:49:15.388Z,3.52
2023-03-12T12:52:03.286Z,3.55
2023-03-12T12:55:16.671Z,3.64
2023-03-12T12:58:34.104Z,3.73
2023-03-12T13:02:23.712Z,3.68
2023-03-12T13:04:58.299Z,3.66
2023-03-12T13:07:34.346Z,3.61
2023-03-12T13:10:57.073Z,3.65
2023-03-12T13:13:34.652Z,3.55
2023-03-12T13:16:37.483Z,3.57
2023-03-12T13:20:06.266Z,3.71
2023-03-12T13:22:40.901Z,3.88
2023-03-12T13:25:55.240Z,3.87
2023-03-12T13:28:37.480Z,3.86
2023-03-12T13:32:34.783Z,3.94
2023-03-12T13:35:18.697Z,3.71
2023-03-12T13:37:58.090Z,3.82
2023-03-12T13:40:30.054Z,3.85
2023-03-12T13:43:40.274Z,3.99
2023-03-12T13:46:15.522Z,4.05
2023-03-12T13:48:49.441Z,4.22
2023-03-12T13:51:24.696Z,3.98
2023-03-12T13:54:01.943Z,3.98
2023-03-12T13:56:34.317Z,3.85
2023-03-12T13:59:14.200Z,3.92
2023-03-12T14:01:51.748Z,3.99
2023-03-12T14:04:39.095Z,4.01
2023-03-12T14:07:23.096Z,4.13
2023-03-12T14:10:32.831Z,4.16
2023-03-12T14:13:36.546Z,4.20
2023-03-12T14:17:04.594Z,4.24
2023-03-12T14:19:36.992Z,4.11
2023-03-12T14:22:13.829Z,4.09
2023-03-12T14:24:57.415Z,4.16
2023-03-12T14:27:34.275Z,4.10
2023-03-12T14:34:21.244Z,4.14
2023-03-12T14:37:29.896Z,4.26
2023-03-12T14:40:19.117Z,4.21
2023-03-12T14:42:51.415Z,4.16
2023-03-12T14:45:23.829Z,4.18
2023-03-12T14:47:58.657Z,4.31
2023-03-12T14:50:39.614Z,4.42
2023-03-12T14:53:19.589Z,4.54
2023-03-12T14:56:15.058Z,4.57
2023-03-12T14:58:57.305Z,4.58
2023-03-12T15:01:37.120Z,4.56
2023-03-12T15:04:21.196Z,4.61
2023-03-12T15:06:57.337Z,4.68
2023-03-12T15:09:33.307Z,4.69
2023-03-12T15:12:17.840Z,4.64
2023-03-12T15:14:55.121Z,4.51
2023-03-12T15:17:30.117Z,4.53
2023-03-12T15:20:36.936Z,4.70
2023-03-12T15:23:13.393Z,4.75
2023-03-12T15:25:46.049Z,4.76
2023-03-12T15:28:18.389Z,4.83
2023-03-12T15:31:17.009Z,4.88
2023-03-12T15:34:05.187Z,4.98
2023-03-12T15:36:49.677Z,4.95
2023-03-12T15:39:38.138Z,4.93
2023-03-12T15:42:17.395Z,4.95
2023-03-12T15:45:01.337Z,5.10
2023-03-12T15:47:40.216Z,5.07
2023-03-12T15:50:21.263Z,4.94
2023-03-12T15:53:04.131Z,4.94
2023-03-12T15:55:36.746Z,5.00
2023-03-12T15:58:32.852Z,5.16
2023-03-12T16:02:09.636Z,5.16
2023-03-12T16:04:41.675Z,5.16
2023-03-12T16:07:14.567Z,5.21
2023-03-12T16:09:46.709Z,5.38
2023-03-12T16:12:18.758Z,5.44
2023-03-12T16:14:50.853Z,5.44
2023-03-12T16:17:23.753Z,5.54
2023-03-12T16:19:55.880Z,5.66
2023-03-12T16:22:28.867Z,5.76
2023-03-12T16:25:00.848Z,5.73
2023-03-12T16:27:39.267Z,5.73
2023-03-12T16:30:23.470Z,5.84
2023-03-12T16:32:56.272Z,5.82
2023-03-12T16:35:28.899Z,5.81
2023-03-12T16:38:02.544Z,5.85
2023-03-12T16:40:42.897Z,5.88
2023-03-12T16:43:25.849Z,5.95
2023-03-12T16:45:58.357Z,5.96
2023-03-12T16:48:30.932Z,6.06
2023-03-12T16:51:03.508Z,6.16
2023-03-12T16:53:35.707Z,6.20
2023-03-12T16:56:10.925Z,6.22
2023-03-12T16:58:58.896Z,6.30
2023-03-12T17:01:31.510Z,6.24
2023-03-12T17:04:05.126Z,6.27
2023-03-12T17:06:40.341Z,6.33
2023-03-12T17:09:47.846Z,6.34
2023-03-12T17:12:31.994Z,6.36
2023-03-12T17:15:35.286Z,6.37
2023-03-12T17:18:12.678Z,6.33
2023-03-12T17:20:45.588Z,6.38
2023-03-12T17:23:17.677Z,6.42
2023-03-12T17:25:49.654Z,6.42
2023-03-12T17:28:21.735Z,6.46
2023-03-12T17:30:54.054Z,6.46
2023-03-12T17:33:36.737Z,6.43
2023-03-12T17:36:09.774Z,6.54
2023-03-12T17:38:41.781Z,6.64
2023-03-12T17:41:26.064Z,6.59
2023-03-12T17:44:01.791Z,6.52
2023-03-12T17:47:06.559Z,6.57
2023-03-12T17:49:38.752Z,6.60
2023-03-12T17:52:40.249Z,6.64
2023-03-12T17:55:12.728Z,6.58
2023-03-12T17:58:09.229Z,6.67
2023-03-12T18:00:41.357Z,6.78
2023-03-12T18:03:13.437Z,6.83
2023-03-12T18:05:45.520Z,6.80
2023-03-12T18:08:17.705Z,6.85
2023-03-12T18:11:13.042Z,6.84
2023-03-12T18:13:48.556Z,6.92
2023-03-12T18:19:42.449Z,6.99
2023-03-12T18:22:14.868Z,7.02
2023-03-12T18:24:47.056Z,7.04
2023-03-12T18:27:19.066Z,7.12
2023-03-12T18:29:54.342Z,7.15
2023-03-12T18:32:26.373Z,7.16
2023-03-12T18:34:58.553Z,7.20
2023-03-12T18:37:30.592Z,7.23
2023-03-12T18:40:02.744Z,7.26
2023-03-12T18:42:35.044Z,7.29
2023-03-12T18:45:07.816Z,7.37
2023-03-12T18:47:40.129Z,7.51
2023-03-12T18:50:13.299Z,7.49
2023-03-12T18:52:45.369Z,7.45
2023-03-12T18:55:41.267Z,7.51
2023-03-12T18:58:13.339Z,7.57
2023-03-12T19:00:51.477Z,7.57
2023-03-12T19:03:25.071Z,7.62
2023-03-12T19:06:13.292Z,7.55
2023-03-12T19:08:45.409Z,7.59
2023-03-12T19:11:39.549Z,7.67
2023-03-12T19:14:34.611Z,7.71
2023-03-12T19:17:06.715Z,7.67
2023-03-12T19:19:41.509Z,7.73
2023-03-12T19:22:13.663Z,7.64
2023-03-12T19:24:45.809Z,7.65
2023-03-12T19:27:18.029Z,7.73
2023-03-12T19:29:50.082Z,7.68
2023-03-12T19:32:25.316Z,7.68
2023-03-12T19:34:59.808Z,7.76
2023-03-12T19:37:31.976Z,7.74
2023-03-12T19:40:05.989Z,7.69
2023-03-12T19:42:38.013Z,7.68
2023-03-12T19:45:11.044Z,7.61
2023-03-12T19:47:43.189Z,7.59
2023-03-12T19:50:19.714Z,7.50
2023-03-12T19:52:52.038Z,7.49
2023-03-12T19:55:24.643Z,7.45
2023-03-12T19:57:56.672Z,7.45
2023-03-12T20:00:29.696Z,7.43
2023-03-12T20:03:01.837Z,7.40
2023-03-12T20:05:34.093Z,7.36
2023-03-12T20:08:06.579Z,7.45
2023-03-12T20:10:39.900Z,7.51
2023-03-12T20:13:13.529Z,7.48
2023-03-12T20:15:47.099Z,7.51
2023-03-12T20:18:19.136Z,7.52
2023-03-12T20:20:51.214Z,7.48
2023-03-12T20:23:23.325Z,7.53
2023-03-12T20:25:55.825Z,7.45
2023-03-12T20:28:28.202Z,7.46
2023-03-12T20:31:17.513Z,7.38
2023-03-12T20:33:49.642Z,7.44
2023-03-12T20:36:23.203Z,7.39
2023-03-12T20:38:55.286Z,7.41
2023-03-12T20:41:27.632Z,7.45
2023-03-12T20:44:00.221Z,7.46
2023-03-12T20:46:32.322Z,7.51
2023-03-12T20:49:04.361Z,7.53
2023-03-12T20:51:36.452Z,7.52
2023-03-12T20:54:09.662Z,7.44
2023-03-12T20:56:43.828Z,7.47
2023-03-12T20:59:15.943Z,7.42
2023-03-12T21:01:47.940Z,7.38
2023-03-12T21:04:20.002Z,7.40
2023-03-12T21:06:52.164Z,7.39
2023-03-12T21:09:24.384Z,7.38
2023-03-12T21:11:56.433Z,7.47
2023-03-12T21:14:28.680Z,7.48
2023-03-12T21:17:00.942Z,7.44
2023-03-12T21:19:33.066Z,7.44
2023-03-12T21:22:05.135Z,7.52
2023-03-12T21:25:08.049Z,7.47
2023-03-12T21:27:50.484Z,7.45
2023-03-12T21:30:23.226Z,7.47
2023-03-12T21:33:02.651Z,7.46
2023-03-12T21:35:34.779Z,7.48
2023-03-12T21:38:06.757Z,7.44
2023-03-12T21:41:13.479Z,7.45
2023-03-12T21:43:47.538Z,7.49
2023-03-12T21:46:24.859Z,7.59
2023-03-12T21:48:57.657Z,7.62
2023-03-12T21:51:29.785Z,7.66
2023-03-12T21:54:01.774Z,7.73
2023-03-12T21:56:36.797Z,7.72
2023-03-12T21:59:09.265Z,7.67
2023-03-12T22:01:41.583Z,7.72
2023-03-12T22:04:13.655Z,7.87
2023-03-12T22:06:45.755Z,7.87
2023-03-12T22:09:18.361Z,7.91
2023-03-12T22:11:50.414Z,7.91
2023-03-12T22:14:24.045Z,7.99
2023-03-12T22:16:58.543Z,7.98
2023-03-12T22:19:30.528Z,7.94
2023-03-12T22:22:05.316Z,7.89
2023-03-12T22:24:37.669Z,7.87
2023-03-12T22:27:09.759Z,7.93
2023-03-12T22:29:43.517Z,7.98
2023-03-12T22:32:15.658Z,7.91
2023-03-12T22:34:47.657Z,7.96
2023-03-12T22:37:19.757Z,7.91
2023-03-12T22:40:22.733Z,7.89
2023-03-12T22:43:13.227Z,7.87
2023-03-12T22:48:36.947Z,7.83
2023-03-12T22:52:28.725Z,7.89
2023-03-12T22:55:01.070Z,7.86
2023-03-12T22:57:37.110Z,7.90
2023-03-12T23:00:13.168Z,7.97
2023-03-12T23:02:45.190Z,7.96
2023-03-12T23:05:57.037Z,7.95
2023-03-12T23:08:37.766Z,7.96
2023-03-12T23:11:10.957Z,8.01
2023-03-12T23:13:45.006Z,8.03
2023-03-12T23:16:26.075Z,8.08
2023-03-12T23:19:11.956Z,8.07
2023-03-12T23:21:46.728Z,8.15
2023-03-12T23:24:18.879Z,8.12
2023-03-12T23:26:51.026Z,8.13
2023-03-12T23:29:23.439Z,8.14
2023-03-12T23:31:55.649Z,8.21
2023-03-12T23:34:28.294Z,8.20
2023-03-12T23:39:54.884Z,8.17
2023-03-12T23:42:28.240Z,8.20
2023-03-12T23:45:00.239Z,8.19
2023-03-12T23:47:32.393Z,8.23
2023-03-12T23:50:05.918Z,8.22
2023-03-12T23:55:30.087Z,8.23
2023-03-12T23:58:02.310Z,8.23
